Time;durP1;ratioP1;P1;durP2;ratioP2;P2;SDS_P1;SDS_P2;PMS_P1;PMS_P2;Temp;Humidity;BMP_temperature;BMP_pressure;BME280_temperature;BME280_humidity;BME280_pressure;Samples;Min_cycle;Max_cycle;Signal;HPM_P1;HPM_P2
2021/11/26 00:00:33;;;;;;;57.50;26.07;;;;;;;-1.31;100.00;95319.13;5028299;28;20038;-72
2021/11/26 00:02:59;;;;;;;58.70;24.77;;;;;;;-1.32;100.00;95319.22;5024677;28;20149;-72
2021/11/26 00:05:25;;;;;;;59.10;25.47;;;;;;;-1.29;100.00;95306.09;5025644;28;20104;-72
2021/11/26 00:07:50;;;;;;;55.97;24.60;;;;;;;-1.32;100.00;95301.97;5008891;28;20058;-72
2021/11/26 00:10:16;;;;;;;53.23;23.60;;;;;;;-1.28;100.00;95300.00;5020674;28;20512;-72
2021/11/26 00:12:51;;;;;;;60.60;26.27;;;;;;;-1.30;100.00;95292.38;5017811;28;20161;-72
2021/11/26 00:18:04;;;;;;;54.57;22.90;;;;;;;-1.22;100.00;95287.50;5024248;28;20475;-72
2021/11/26 00:20:31;;;;;;;61.45;24.20;;;;;;;-1.34;100.00;95285.81;5010131;28;20480;-72
2021/11/26 00:22:56;;;;;;;60.53;23.40;;;;;;;-1.34;100.00;95270.34;5008895;28;20033;-72
2021/11/26 00:25:22;;;;;;;64.03;25.03;;;;;;;-1.33;100.00;95269.41;5013578;28;20546;-72
2021/11/26 00:27:48;;;;;;;61.43;24.30;;;;;;;-1.32;100.00;95272.78;5022059;28;20061;-73
2021/11/26 00:30:14;;;;;;;61.33;29.23;;;;;;;-1.33;100.00;95263.41;5022759;28;20044;-72
2021/11/26 00:32:40;;;;;;;64.37;27.70;;;;;;;-1.26;100.00;95268.00;5018694;28;20448;-72
2021/11/26 00:35:06;;;;;;;69.60;26.93;;;;;;;-1.38;100.00;95258.56;5026207;28;20079;-72
2021/11/26 00:37:32;;;;;;;75.40;28.80;;;;;;;-1.30;100.00;95251.13;5020021;28;20038;-72
2021/11/26 00:39:58;;;;;;;68.43;28.40;;;;;;;-1.29;100.00;95249.38;5006552;28;20455;-72
2021/11/26 00:42:24;;;;;;;64.87;27.53;;;;;;;-1.30;100.00;95247.72;5024173;28;20909;-73
2021/11/26 00:44:50;;;;;;;69.77;29.80;;;;;;;-1.27;100.00;95253.47;5023250;28;20032;-73
2021/11/26 00:47:15;;;;;;;77.70;29.33;;;;;;;-1.36;100.00;95245.59;5005030;28;20034;-73
2021/11/26 00:49:41;;;;;;;82.33;29.17;;;;;;;-1.28;100.00;95240.69;5023643;28;20029;-73
2021/11/26 00:52:07;;;;;;;71.73;27.40;;;;;;;-1.36;100.00;95243.00;5027920;28;20029;-72
2021/11/26 00:54:32;;;;;;;77.23;28.23;;;;;;;-1.42;100.00;95237.34;5030601;28;20026;-74
2021/11/26 00:56:58;;;;;;;77.90;27.93;;;;;;;-1.45;100.00;95229.00;5027052;28;20030;-72
2021/11/26 00:59:24;;;;;;;79.47;29.37;;;;;;;-1.48;100.00;95226.66;5027908;28;20033;-72
2021/11/26 01:01:49;;;;;;;72.77;26.50;;;;;;;-1.43;100.00;95214.25;5031856;28;20033;-73
2021/11/26 01:04:15;;;;;;;72.60;27.50;;;;;;;-1.47;100.00;95207.69;5019759;28;20048;-72
2021/11/26 01:06:41;;;;;;;71.37;29.43;;;;;;;-1.45;100.00;95203.22;5030873;28;20106;-72
2021/11/26 01:09:06;;;;;;;72.77;28.80;;;;;;;-1.36;100.00;95205.13;5028270;28;20040;-72
2021/11/26 01:11:32;;;;;;;72.40;27.43;;;;;;;-1.47;100.00;95203.34;5000230;28;20033;-72
2021/11/26 01:13:58;;;;;;;70.83;29.73;;;;;;;-1.47;100.00;95211.09;5015454;28;20407;-72
2021/11/26 01:16:23;;;;;;;74.47;29.33;;;;;;;-1.39;100.00;95200.19;5018186;28;20161;-73
2021/11/26 01:18:49;;;;;;;71.40;28.07;;;;;;;-1.39;100.00;95199.38;5022983;28;20548;-72
2021/11/26 01:21:15;;;;;;;70.93;28.97;;;;;;;-1.40;100.00;95198.56;5019082;28;20036;-73
2021/11/26 01:23:41;;;;;;;64.00;27.37;;;;;;;-1.41;100.00;95204.63;5027688;28;20520;-72
2021/11/26 01:26:07;;;;;;;71.97;27.97;;;;;;;-1.40;100.00;95201.16;5017207;28;20510;-73
2021/11/26 01:28:33;;;;;;;70.50;28.53;;;;;;;-1.40;100.00;95203.72;5021786;28;20029;-72
2021/11/26 01:30:59;;;;;;;64.17;27.30;;;;;;;-1.34;100.00;95205.88;5024110;28;20033;-73
2021/11/26 01:33:25;;;;;;;63.17;26.50;;;;;;;-1.44;100.00;95192.81;5024170;28;20531;-73
2021/11/26 01:35:54;;;;;;;71.83;29.90;;;;;;;-1.36;100.00;95206.91;5023190;28;20046;-72
2021/11/26 01:38:21;;;;;;;61.53;25.97;;;;;;;-1.34;100.00;95199.84;5036435;28;20120;-72
2021/11/26 01:40:48;;;;;;;66.43;27.77;;;;;;;-1.32;100.00;95211.72;5024909;28;20445;-72
2021/11/26 01:43:16;;;;;;;71.13;28.03;;;;;;;-1.43;100.00;95196.22;5016498;28;20460;-71
2021/11/26 01:45:43;;;;;;;73.37;29.57;;;;;;;-1.37;100.00;95193.19;5024925;28;20452;-72
2021/11/26 01:48:09;;;;;;;71.47;28.60;;;;;;;-1.33;100.00;95194.59;5030045;28;20452;-72
2021/11/26 01:50:35;;;;;;;70.53;28.93;;;;;;;-1.40;100.00;95190.84;5022294;28;21027;-72
2021/11/26 01:53:00;;;;;;;72.70;29.63;;;;;;;-1.39;100.00;95186.50;5025185;28;20038;-72
2021/11/26 01:55:26;;;;;;;64.90;26.63;;;;;;;-1.33;100.00;95188.63;5018424;28;20029;-73
2021/11/26 01:57:52;;;;;;;70.43;28.97;;;;;;;-1.42;100.00;95179.78;5025660;28;20029;-72
2021/11/26 02:00:23;;;;;;;70.47;29.17;;;;;;;-1.37;100.00;95185.44;5025827;28;20033;-72
2021/11/26 02:02:49;;;;;;;72.13;30.73;;;;;;;-1.37;100.00;95182.88;5034408;28;20048;-72
2021/11/26 02:05:14;;;;;;;68.17;27.83;;;;;;;-1.43;100.00;95183.31;5028837;28;20455;-72
2021/11/26 02:07:40;;;;;;;75.97;28.33;;;;;;;-1.46;100.00;95184.34;5023708;28;20399;-72
2021/11/26 02:10:07;;;;;;;65.70;29.20;;;;;;;-1.43;100.00;95180.75;5019554;28;20029;-72
2021/11/26 02:12:33;;;;;;;77.27;31.07;;;;;;;-1.48;100.00;95181.06;5025565;28;20030;-72
2021/11/26 02:14:59;;;;;;;77.63;28.63;;;;;;;-1.44;100.00;95177.34;5026850;28;20424;-72
2021/11/26 02:17:28;;;;;;;69.73;28.47;;;;;;;-1.44;100.00;95173.94;5017064;28;20483;-72
2021/11/26 02:19:55;;;;;;;66.97;28.87;;;;;;;-1.38;100.00;95173.47;5027171;28;20173;-72
2021/11/26 02:22:23;;;;;;;78.97;31.73;;;;;;;-1.43;100.00;95173.00;5024204;28;20483;-72
2021/11/26 02:24:48;;;;;;;68.40;28.73;;;;;;;-1.46;100.00;95158.56;5010301;28;20449;-72
2021/11/26 02:27:19;;;;;;;80.07;29.50;;;;;;;-1.40;100.00;95159.06;5021921;28;20467;-73
2021/11/26 02:29:52;;;;;;;69.80;30.37;;;;;;;-1.40;100.00;95159.88;5005519;28;20037;-72
2021/11/26 02:32:17;;;;;;;75.05;29.70;;;;;;;-1.37;100.00;95161.44;5026444;28;20511;-73
2021/11/26 02:34:43;;;;;;;78.80;30.57;;;;;;;-1.40;100.00;95161.66;5027282;28;20053;-72
2021/11/26 02:37:09;;;;;;;85.40;33.03;;;;;;;-1.36;100.00;95158.72;5011684;28;20120;-72
2021/11/26 02:39:34;;;;;;;75.40;30.07;;;;;;;-1.37;100.00;95151.94;5016644;28;20455;-72
2021/11/26 02:42:00;;;;;;;74.40;30.17;;;;;;;-1.43;100.00;95152.38;5038121;28;20039;-72
2021/11/26 02:44:26;;;;;;;76.80;30.53;;;;;;;-1.48;100.00;95149.28;5017455;28;20029;-73
2021/11/26 02:46:51;;;;;;;79.23;31.20;;;;;;;-1.37;100.00;95144.19;5010638;28;20546;-72
2021/11/26 02:49:19;;;;;;;72.20;28.60;;;;;;;-1.46;100.00;95142.28;5023916;28;20483;-73
2021/11/26 02:51:45;;;;;;;72.33;30.73;;;;;;;-1.41;100.00;95137.59;5024395;28;20427;-72
2021/11/26 02:54:11;;;;;;;75.27;30.90;;;;;;;-1.42;100.00;95135.97;5021726;28;20551;-72
2021/11/26 02:56:36;;;;;;;76.10;33.07;;;;;;;-1.38;100.00;95131.41;5016272;28;20037;-73
2021/11/26 02:59:02;;;;;;;77.00;31.73;;;;;;;-1.35;100.00;95126.81;5020353;28;20025;-72
2021/11/26 03:01:28;;;;;;;76.87;32.27;;;;;;;-1.36;100.00;95126.97;5033072;28;20087;-73
2021/11/26 03:03:54;;;;;;;71.50;30.93;;;;;;;-1.36;100.00;95116.63;5014593;28;20551;-72
2021/11/26 03:06:20;;;;;;;75.83;30.63;;;;;;;-1.45;100.00;95107.81;5019525;28;20217;-73
2021/11/26 03:08:46;;;;;;;74.37;30.53;;;;;;;-1.32;100.00;95110.31;5007007;28;20491;-72
2021/11/26 03:11:11;;;;;;;71.87;29.80;;;;;;;-1.39;100.00;95101.41;5027649;28;20826;-72
2021/11/26 03:13:37;;;;;;;74.80;32.30;;;;;;;-1.33;100.00;95108.69;5019046;28;20045;-73
2021/11/26 03:16:03;;;;;;;82.50;31.10;;;;;;;-1.32;100.00;95105.97;5016148;28;20037;-72
2021/11/26 03:18:29;;;;;;;77.00;31.30;;;;;;;-1.38;100.00;95109.00;5010675;28;20033;-72
2021/11/26 03:20:56;;;;;;;74.03;29.40;;;;;;;-1.42;100.00;95102.44;5010837;28;20456;-72
2021/11/26 03:23:23;;;;;;;70.57;30.53;;;;;;;-1.42;100.00;95095.50;5032077;28;20021;-73
2021/11/26 03:25:48;;;;;;;68.67;29.43;;;;;;;-1.41;100.00;95096.34;5040227;28;20498;-72
2021/11/26 03:28:16;;;;;;;69.07;29.07;;;;;;;-1.38;100.00;95098.69;5030487;28;20432;-72
2021/11/26 03:30:43;;;;;;;79.00;32.33;;;;;;;-1.43;100.00;95096.47;5023487;28;20048;-73
2021/11/26 03:33:10;;;;;;;68.40;27.87;;;;;;;-1.49;100.00;95094.34;5009202;28;20485;-72
2021/11/26 03:35:36;;;;;;;69.80;30.43;;;;;;;-1.36;100.00;95090.84;5023966;28;20428;-72
2021/11/26 03:38:02;;;;;;;66.10;30.60;;;;;;;-1.37;100.00;95090.03;5016936;28;20466;-72
2021/11/26 03:40:28;;;;;;;60.67;27.10;;;;;;;-1.34;100.00;95084.66;5015350;28;20040;-72
2021/11/26 03:42:56;;;;;;;61.27;27.57;;;;;;;-1.38;100.00;95083.22;5024131;28;20473;-73
2021/11/26 03:45:24;;;;;;;68.70;27.53;;;;;;;-1.42;100.00;95081.81;5028141;28;20459;-73
2021/11/26 03:47:51;;;;;;;71.33;29.50;;;;;;;-1.44;100.00;95075.97;5024715;28;20460;-72
2021/11/26 03:50:18;;;;;;;75.43;29.27;;;;;;;-1.52;100.00;95070.53;5009321;28;20477;-73
2021/11/26 03:52:44;;;;;;;69.17;27.03;;;;;;;-1.55;100.00;95063.03;5014023;28;20530;-72
2021/11/26 03:55:21;;;;;;;66.80;28.77;;;;;;;-1.51;100.00;95061.84;5032563;28;20451;-72
2021/11/26 03:57:47;;;;;;;67.10;29.23;;;;;;;-1.46;100.00;95064.94;5018508;28;20041;-72
2021/11/26 04:00:15;;;;;;;65.30;29.03;;;;;;;-1.38;100.00;95066.91;5013840;28;20483;-72
2021/11/26 04:02:44;;;;;;;68.30;30.33;;;;;;;-1.38;100.00;95070.31;5013200;28;20480;-73
2021/11/26 04:05:09;;;;;;;71.70;29.27;;;;;;;-1.40;100.00;95059.31;5022943;28;20420;-72
2021/11/26 04:07:36;;;;;;;68.77;27.93;;;;;;;-1.35;100.00;95052.03;5018498;28;20829;-72
2021/11/26 04:10:02;;;;;;;64.27;27.13;;;;;;;-1.39;100.00;95052.41;5034620;28;20090;-72
2021/11/26 04:12:29;;;;;;;68.00;29.80;;;;;;;-1.52;100.00;95053.31;5022802;28;21100;-72
2021/11/26 04:14:55;;;;;;;65.77;26.53;;;;;;;-1.44;100.00;95047.59;5014294;28;20449;-72
2021/11/26 04:17:24;;;;;;;61.13;26.40;;;;;;;-1.48;100.00;95048.75;5022404;28;20836;-72
2021/11/26 04:19:51;;;;;;;64.00;27.70;;;;;;;-1.44;100.00;95039.88;5029270;28;20456;-73
2021/11/26 04:22:17;;;;;;;59.13;27.30;;;;;;;-1.40;100.00;95033.53;5027760;28;20463;-72
2021/11/26 04:24:42;;;;;;;66.17;28.77;;;;;;;-1.43;100.00;95041.50;5037305;28;20471;-72
2021/11/26 04:27:08;;;;;;;65.43;27.00;;;;;;;-1.46;100.00;95034.00;5028634;28;20041;-72
2021/11/26 04:29:35;;;;;;;64.93;29.37;;;;;;;-1.47;100.00;95032.34;5026769;28;20108;-72
2021/11/26 04:32:00;;;;;;;67.13;27.77;;;;;;;-1.45;100.00;95031.28;5047468;28;20120;-72
2021/11/26 04:34:27;;;;;;;69.37;27.70;;;;;;;-1.50;100.00;95037.75;5029231;28;21076;-72
2021/11/26 04:36:53;;;;;;;61.90;26.03;;;;;;;-1.51;100.00;95036.06;5025679;28;20102;-72
2021/11/26 04:39:19;;;;;;;61.07;28.40;;;;;;;-1.52;100.00;95031.88;5036646;28;20554;-73
2021/11/26 04:41:45;;;;;;;61.97;26.90;;;;;;;-1.51;100.00;95025.75;5026627;28;20556;-73
2021/11/26 04:44:10;;;;;;;62.93;27.53;;;;;;;-1.44;100.00;95030.38;5019935;28;20574;-73
2021/11/26 04:46:36;;;;;;;65.63;28.80;;;;;;;-1.40;100.00;95030.13;5033124;28;20033;-72
2021/11/26 04:49:05;;;;;;;62.23;27.27;;;;;;;-1.40;100.00;95027.56;5037294;28;20468;-72
2021/11/26 04:51:31;;;;;;;59.87;27.83;;;;;;;-1.46;100.00;95027.06;5027418;28;20042;-72
2021/11/26 04:53:56;;;;;;;61.30;29.37;;;;;;;-1.43;100.00;95018.28;5033420;28;20452;-72
2021/11/26 04:56:22;;;;;;;74.30;35.17;;;;;;;-1.43;100.00;95003.63;5022346;28;20465;-73
2021/11/26 04:58:48;;;;;;;60.17;28.43;;;;;;;-1.34;100.00;95002.13;5025807;28;20037;-73
2021/11/26 05:01:13;;;;;;;62.17;27.80;;;;;;;-1.30;100.00;94998.38;5020776;28;20034;-72
2021/11/26 05:03:39;;;;;;;62.07;28.03;;;;;;;-1.32;100.00;94995.06;5013210;28;20036;-72
2021/11/26 05:06:05;;;;;;;63.83;28.77;;;;;;;-1.30;100.00;94992.41;5017049;28;20037;-73
2021/11/26 05:08:31;;;;;;;64.67;27.60;;;;;;;-1.31;100.00;94994.16;5034051;28;20038;-73
2021/11/26 05:10:57;;;;;;;59.37;26.43;;;;;;;-1.39;100.00;94990.50;5025387;28;20017;-72
2021/11/26 05:13:27;;;;;;;51.10;24.77;;;;;;;-1.39;100.00;94987.94;5026530;28;20029;-72
2021/11/26 05:15:53;;;;;;;62.50;28.57;;;;;;;-1.33;100.00;94977.97;5015885;28;20471;-73
2021/11/26 05:18:23;;;;;;;70.50;28.07;;;;;;;-1.29;100.00;94976.78;5030460;28;20466;-72
2021/11/26 05:20:51;;;;;;;59.70;27.00;;;;;;;-1.25;100.00;94970.44;5030261;28;20460;-72
2021/11/26 05:23:18;;;;;;;55.73;26.13;;;;;;;-1.30;100.00;94977.72;5012613;28;20471;-72
2021/11/26 05:25:44;;;;;;;60.97;27.53;;;;;;;-1.30;100.00;94967.41;5030493;28;20452;-72
2021/11/26 05:28:10;;;;;;;70.00;27.00;;;;;;;-1.34;100.00;94960.00;5012098;28;20501;-73
2021/11/26 05:30:36;;;;;;;68.23;29.40;;;;;;;-1.36;100.00;94962.72;5025785;28;20452;-72
2021/11/26 05:33:02;;;;;;;63.20;28.93;;;;;;;-1.34;100.00;94966.03;5028758;28;20022;-73
2021/11/26 05:35:28;;;;;;;61.40;28.67;;;;;;;-1.34;100.00;94968.59;5023923;28;20048;-73
2021/11/26 05:37:54;;;;;;;63.83;29.33;;;;;;;-1.24;100.00;94968.69;5027212;28;20061;-75
2021/11/26 05:40:19;;;;;;;61.80;26.53;;;;;;;-1.21;100.00;94971.03;5036724;28;20443;-75
2021/11/26 05:42:46;;;;;;;64.50;28.17;;;;;;;-1.28;100.00;94973.25;5024619;28;20487;-75
2021/11/26 05:45:13;;;;;;;61.87;26.90;;;;;;;-1.24;100.00;94966.94;5041488;28;20112;-75
2021/11/26 05:47:39;;;;;;;66.90;27.93;;;;;;;-1.23;100.00;94963.41;5020622;28;20532;-75
2021/11/26 05:50:08;;;;;;;79.57;29.27;;;;;;;-1.22;100.00;94962.47;5024819;28;20996;-74
2021/11/26 05:52:35;;;;;;;74.30;30.60;;;;;;;-1.10;100.00;94962.47;5022136;28;20505;-73
2021/11/26 05:55:02;;;;;;;70.70;29.00;;;;;;;-1.03;100.00;94954.13;5023581;28;20499;-73
2021/11/26 05:57:27;;;;;;;73.33;30.33;;;;;;;-0.99;100.00;94944.38;5032322;28;20451;-73
2021/11/26 05:59:53;;;;;;;72.87;28.13;;;;;;;-1.05;100.00;94944.88;5047353;28;20450;-74
2021/11/26 06:02:19;;;;;;;80.90;32.53;;;;;;;-1.13;100.00;94953.22;5032733;28;20075;-74
2021/11/26 06:04:44;;;;;;;81.20;33.63;;;;;;;-1.08;100.00;94939.94;5022620;28;20547;-74
2021/11/26 06:07:10;;;;;;;73.73;28.20;;;;;;;-1.09;100.00;94938.31;5030517;28;20040;-74
2021/11/26 06:09:36;;;;;;;79.20;31.30;;;;;;;-1.07;100.00;94936.44;5025708;28;20501;-74
2021/11/26 06:12:02;;;;;;;83.53;30.60;;;;;;;-1.14;100.00;94937.84;5019922;28;20441;-75
2021/11/26 06:14:28;;;;;;;84.53;33.50;;;;;;;-1.06;100.00;94941.47;5011065;28;20711;-74
2021/11/26 06:16:53;;;;;;;76.17;29.60;;;;;;;-1.11;100.00;94935.84;5021918;28;20042;-74
2021/11/26 06:19:19;;;;;;;84.70;31.97;;;;;;;-1.17;100.00;94935.50;5035024;28;20060;-73
2021/11/26 06:21:45;;;;;;;80.63;31.70;;;;;;;-1.14;100.00;94933.53;5030869;28;20112;-74
2021/11/26 06:24:10;;;;;;;84.07;29.30;;;;;;;-1.18;100.00;94939.84;5003385;28;20080;-73
2021/11/26 06:26:36;;;;;;;74.60;29.80;;;;;;;-1.29;100.00;94945.84;5016778;28;20516;-74
2021/11/26 06:29:02;;;;;;;73.47;30.03;;;;;;;-1.25;100.00;94942.06;5035504;28;20480;-74
2021/11/26 06:31:28;;;;;;;76.93;29.27;;;;;;;-1.22;100.00;94944.41;5023100;28;20115;-73
2021/11/26 06:33:53;;;;;;;70.83;30.33;;;;;;;-1.23;100.00;94947.13;5014265;28;20045;-74
2021/11/26 06:36:19;;;;;;;76.20;29.37;;;;;;;-1.31;100.00;94947.72;5014960;28;20454;-74
2021/11/26 06:38:45;;;;;;;73.13;28.97;;;;;;;-1.25;100.00;94949.81;5038797;28;20124;-73
2021/11/26 06:41:10;;;;;;;72.47;29.43;;;;;;;-1.22;100.00;94952.16;5021679;28;20041;-74
2021/11/26 06:43:36;;;;;;;60.00;27.37;;;;;;;-1.22;100.00;94948.75;5020051;28;20041;-74
2021/11/26 06:46:02;;;;;;;70.93;30.53;;;;;;;-1.27;100.00;94945.75;5021936;28;20091;-74
2021/11/26 06:48:27;;;;;;;69.37;28.87;;;;;;;-1.25;100.00;94942.06;5033277;28;20029;-73
2021/11/26 06:50:53;;;;;;;73.43;30.07;;;;;;;-1.22;100.00;94935.88;5016680;28;20057;-74
2021/11/26 06:53:19;;;;;;;67.40;29.90;;;;;;;-1.30;100.00;94935.66;5021350;28;20044;-74
2021/11/26 06:55:45;;;;;;;71.30;30.93;;;;;;;-1.15;100.00;94934.44;5022543;28;20563;-74
2021/11/26 06:58:11;;;;;;;65.83;28.70;;;;;;;-1.20;100.00;94927.06;5021182;28;20042;-73
2021/11/26 07:00:37;;;;;;;59.30;27.23;;;;;;;-1.13;100.00;94922.25;5008986;28;20518;-74
2021/11/26 07:03:03;;;;;;;66.90;28.10;;;;;;;-1.13;100.00;94927.41;5027956;28;20041;-74
2021/11/26 07:05:29;;;;;;;65.70;28.77;;;;;;;-1.17;100.00;94925.19;5022547;28;20448;-75
2021/11/26 07:07:55;;;;;;;63.60;28.93;;;;;;;-1.20;100.00;94919.34;5026890;28;20804;-73
2021/11/26 07:10:22;;;;;;;60.83;28.40;;;;;;;-1.22;100.00;94921.19;5023278;28;20049;-74
2021/11/26 07:12:47;;;;;;;65.70;28.83;;;;;;;-1.24;100.00;94915.38;5019137;28;20467;-71
2021/11/26 07:15:15;;;;;;;69.53;31.40;;;;;;;-1.25;100.00;94905.16;5030220;28;20044;-72
2021/11/26 07:17:40;;;;;;;66.97;29.93;;;;;;;-1.28;100.00;94908.78;5026317;28;20040;-71
2021/11/26 07:20:08;;;;;;;67.70;28.53;;;;;;;-1.22;100.00;94904.91;5036938;28;20455;-71
2021/11/26 07:22:33;;;;;;;67.63;28.87;;;;;;;-1.23;100.00;94906.69;5011076;28;20051;-72
2021/11/26 07:24:59;;;;;;;60.17;28.40;;;;;;;-1.20;100.00;94903.03;5028459;28;20441;-71
2021/11/26 07:27:25;;;;;;;67.87;29.47;;;;;;;-1.20;100.00;94901.28;5029109;28;20040;-72
2021/11/26 07:29:52;;;;;;;63.70;29.37;;;;;;;-1.17;100.00;94895.06;5013619;28;20494;-72
2021/11/26 07:32:18;;;;;;;68.43;28.23;;;;;;;-1.16;100.00;94901.03;5009252;28;20686;-73
2021/11/26 07:34:43;;;;;;;71.87;31.70;;;;;;;-1.14;100.00;94894.81;5027054;28;20456;-73
2021/11/26 07:37:10;;;;;;;67.80;32.23;;;;;;;-1.14;100.00;94894.81;5017318;28;20033;-73
2021/11/26 07:39:37;;;;;;;65.97;28.53;;;;;;;-1.12;100.00;94887.78;5009724;28;20635;-73
2021/11/26 07:42:10;;;;;;;62.17;29.60;;;;;;;-1.14;100.00;94884.50;5028412;28;20467;-73
2021/11/26 07:44:38;;;;;;;65.30;30.00;;;;;;;-1.14;100.00;94881.09;5019247;28;20494;-73
2021/11/26 07:47:05;;;;;;;66.23;30.30;;;;;;;-1.17;100.00;94873.59;5031394;28;20796;-72
2021/11/26 07:49:32;;;;;;;70.43;29.60;;;;;;;-1.14;100.00;94868.19;5016676;28;20518;-73
2021/11/26 07:52:00;;;;;;;68.77;30.20;;;;;;;-1.16;100.00;94870.09;5036973;28;20521;-72
2021/11/26 07:54:26;;;;;;;78.47;34.60;;;;;;;-1.19;100.00;94868.56;5031056;28;20452;-72
2021/11/26 07:56:53;;;;;;;69.47;29.70;;;;;;;-1.13;100.00;94872.44;5030054;28;20460;-72
2021/11/26 07:59:20;;;;;;;69.73;30.23;;;;;;;-1.16;100.00;94868.31;5013295;28;20518;-72
2021/11/26 08:01:47;;;;;;;74.63;33.00;;;;;;;-1.21;100.00;94871.28;5027137;28;20488;-74
2021/11/26 08:04:15;;;;;;;74.70;31.93;;;;;;;-1.22;100.00;94867.03;5028439;28;20476;-73
2021/11/26 08:06:46;;;;;;;73.33;32.10;;;;;;;-1.20;100.00;94865.16;5032544;28;20459;-72
2021/11/26 08:09:16;;;;;;;75.33;30.37;;;;;;;-1.15;100.00;94866.56;5014709;28;20467;-72
2021/11/26 08:11:44;;;;;;;74.17;31.47;;;;;;;-1.19;100.00;94863.41;5031330;28;20507;-73
2021/11/26 08:14:11;;;;;;;76.30;32.40;;;;;;;-1.12;100.00;94856.00;5039439;28;20465;-72
2021/11/26 08:16:38;;;;;;;70.97;33.10;;;;;;;-1.10;100.00;94864.44;5015859;28;20463;-72
2021/11/26 08:19:05;;;;;;;75.73;34.17;;;;;;;-1.10;100.00;94851.56;5021055;28;20525;-73
2021/11/26 08:21:32;;;;;;;72.07;32.77;;;;;;;-1.16;100.00;94855.44;5014019;28;20547;-73
2021/11/26 08:23:59;;;;;;;75.40;31.63;;;;;;;-1.11;100.00;94850.69;5031235;28;20444;-73
2021/11/26 08:26:25;;;;;;;79.50;33.07;;;;;;;-1.09;100.00;94845.44;5035080;28;20473;-73
2021/11/26 08:28:51;;;;;;;77.63;34.13;;;;;;;-1.19;100.00;94848.75;5053381;28;20460;-72
2021/11/26 08:31:17;;;;;;;80.47;34.90;;;;;;;-1.10;100.00;94842.03;5029988;28;20079;-72
2021/11/26 08:33:43;;;;;;;72.93;34.13;;;;;;;-1.14;100.00;94834.66;5022951;28;20581;-73
2021/11/26 08:36:08;;;;;;;73.53;33.20;;;;;;;-1.17;100.00;94838.31;5033609;28;20455;-73
2021/11/26 08:38:34;;;;;;;73.47;34.17;;;;;;;-1.13;100.00;94831.97;5023506;28;20563;-72
2021/11/26 08:41:00;;;;;;;74.43;34.77;;;;;;;-1.20;100.00;94834.22;5034354;28;20029;-73
2021/11/26 08:43:26;;;;;;;71.30;32.37;;;;;;;-1.25;100.00;94828.59;5024940;28;20471;-73
2021/11/26 08:46:01;;;;;;;82.93;36.57;;;;;;;-1.22;100.00;94830.94;5031884;28;20092;-75
2021/11/26 08:48:27;;;;;;;78.47;35.13;;;;;;;-1.23;100.00;94826.72;5031420;28;20033;-72
2021/11/26 08:50:53;;;;;;;77.00;35.60;;;;;;;-1.23;100.00;94829.28;5034835;28;20555;-72
2021/11/26 08:53:20;;;;;;;76.57;34.67;;;;;;;-1.15;100.00;94820.94;5036725;28;20566;-73
2021/11/26 08:55:50;;;;;;;75.40;35.70;;;;;;;-1.03;100.00;94822.53;5013201;28;20026;-72
2021/11/26 08:58:16;;;;;;;78.13;34.50;;;;;;;-1.09;100.00;94819.63;5018346;28;20523;-72
2021/11/26 09:00:43;;;;;;;74.40;34.03;;;;;;;-1.06;100.00;94821.97;5027919;28;20459;-73
2021/11/26 09:03:10;;;;;;;79.53;35.27;;;;;;;-1.06;100.00;94827.13;5027489;28;20474;-72
2021/11/26 09:05:36;;;;;;;73.00;36.30;;;;;;;-1.06;100.00;94814.25;5028160;28;20458;-72
2021/11/26 09:08:02;;;;;;;74.63;34.90;;;;;;;-1.03;100.00;94821.72;5032959;28;20451;-72
2021/11/26 09:10:31;;;;;;;72.60;32.57;;;;;;;-0.99;100.00;94817.97;5020340;28;20042;-73
2021/11/26 09:12:58;;;;;;;78.83;37.50;;;;;;;-0.95;100.00;94811.59;5032187;28;20484;-73
2021/11/26 09:15:23;;;;;;;76.57;35.87;;;;;;;-1.03;100.00;94811.41;4998451;28;20459;-73
2021/11/26 09:17:50;;;;;;;74.10;35.37;;;;;;;-0.96;100.00;94815.94;5035502;28;20814;-73
2021/11/26 09:20:16;;;;;;;78.60;36.47;;;;;;;-0.91;100.00;94810.41;5029192;28;20081;-73
2021/11/26 09:22:42;;;;;;;71.17;34.37;;;;;;;-0.88;100.00;94806.75;5027864;28;21219;-73
2021/11/26 09:25:08;;;;;;;78.60;35.17;;;;;;;-0.84;100.00;94803.81;5028724;28;20021;-73
2021/11/26 09:27:34;;;;;;;76.93;33.63;;;;;;;-0.89;100.00;94799.97;5035241;28;20456;-73
2021/11/26 09:30:01;;;;;;;71.33;34.03;;;;;;;-0.79;100.00;94796.50;5022834;28;20800;-73
2021/11/26 09:32:27;;;;;;;71.63;33.33;;;;;;;-0.77;100.00;94797.22;5030417;28;20488;-73
2021/11/26 09:34:52;;;;;;;65.60;31.00;;;;;;;-0.83;100.00;94796.91;5026446;28;20491;-73
2021/11/26 09:37:18;;;;;;;67.30;33.83;;;;;;;-0.75;100.00;94792.72;5023771;28;20503;-74
2021/11/26 09:39:44;;;;;;;68.30;31.23;;;;;;;-0.72;100.00;94784.72;5030011;28;20044;-73
2021/11/26 09:42:10;;;;;;;65.77;32.50;;;;;;;-0.80;100.00;94778.59;5022160;28;20464;-73
2021/11/26 09:44:39;;;;;;;61.87;31.17;;;;;;;-0.71;100.00;94788.13;5031052;28;20479;-73
2021/11/26 09:47:06;;;;;;;70.33;33.57;;;;;;;-0.68;100.00;94780.13;5014290;28;20492;-73
2021/11/26 09:49:32;;;;;;;66.13;32.30;;;;;;;-0.56;100.00;94778.31;5029766;28;20614;-73
2021/11/26 09:51:58;;;;;;;65.63;32.83;;;;;;;-0.52;100.00;94780.50;5033128;28;20546;-73
2021/11/26 09:54:24;;;;;;;68.33;29.53;;;;;;;-0.48;100.00;94768.97;5034216;28;20018;-73
2021/11/26 09:56:50;;;;;;;63.27;30.90;;;;;;;-0.48;100.00;94757.81;5040492;28;20551;-74
2021/11/26 09:59:18;;;;;;;60.60;29.97;;;;;;;-0.54;100.00;94758.34;5028932;28;20383;-73
2021/11/26 10:01:44;;;;;;;65.60;29.43;;;;;;;-0.41;100.00;94753.78;5021247;28;20515;-73
2021/11/26 10:04:18;;;;;;;57.87;29.27;;;;;;;-0.43;100.00;94745.38;5013494;28;20460;-73
2021/11/26 10:06:45;;;;;;;59.63;30.50;;;;;;;-0.47;100.00;94743.97;5032064;28;20479;-73
2021/11/26 10:09:10;;;;;;;56.90;31.03;;;;;;;-0.62;100.00;94738.31;5025185;28;20457;-73
2021/11/26 10:11:43;;;;;;;59.50;30.03;;;;;;;-0.62;100.00;94734.94;5026521;28;20503;-73
2021/11/26 10:14:15;;;;;;;64.75;30.25;;;;;;;-0.53;100.00;94724.66;5012955;28;20450;-73
2021/11/26 10:16:46;;;;;;;60.60;30.47;;;;;;;-0.53;100.00;94721.25;5008636;28;20038;-73
2021/11/26 10:19:12;;;;;;;61.73;31.43;;;;;;;-0.54;100.00;94722.19;5026295;28;20491;-73
2021/11/26 10:21:39;;;;;;;62.90;30.33;;;;;;;-0.44;100.00;94719.66;5012653;28;20498;-73
2021/11/26 10:24:14;;;;;;;59.47;30.37;;;;;;;-0.25;100.00;94717.16;5018948;28;20509;-73
2021/11/26 10:26:40;;;;;;;63.53;29.33;;;;;;;-0.34;100.00;94705.81;5001968;28;20460;-73
2021/11/26 10:29:05;;;;;;;65.83;31.77;;;;;;;-0.34;100.00;94708.41;5030081;28;20570;-74
2021/11/26 10:31:38;;;;;;;61.63;30.97;;;;;;;-0.24;100.00;94698.91;5016093;28;20483;-73
2021/11/26 10:34:06;;;;;;;56.77;30.60;;;;;;;-0.33;100.00;94693.75;5027797;28;20071;-73
2021/11/26 10:37:01;;;;;;;62.40;31.10;;;;;;;-0.28;100.00;94694.97;5018878;28;21254;-73
2021/11/26 10:39:27;;;;;;;61.13;30.33;;;;;;;-0.32;100.00;94696.19;5025605;28;20453;-73
2021/11/26 10:41:58;;;;;;;66.60;32.90;;;;;;;-0.26;100.00;94689.69;5010641;28;20475;-73
2021/11/26 10:49:45;;;;;;;64.27;31.67;;;;;;;-0.15;100.00;94681.00;5024394;28;20476;-73
2021/11/26 11:00:05;;;;;;;67.47;33.83;;;;;;;-0.02;100.00;94658.34;5023605;28;20464;-74
2021/11/26 11:02:54;;;;;;;61.40;29.77;;;;;;;-0.16;100.00;94643.22;5020657;28;20461;-73
2021/11/26 11:05:38;;;;;;;71.20;37.60;;;;;;;-0.19;100.00;94633.97;5023250;28;20841;-73
2021/11/26 11:08:05;;;;;;;54.30;28.40;;;;;;;-0.10;100.00;94635.75;5001892;28;20958;-73
2021/11/26 11:10:34;;;;;;;58.47;29.80;;;;;;;-0.10;100.00;94630.59;5013506;28;20673;-73
2021/11/26 11:13:09;;;;;;;62.03;30.47;;;;;;;-0.13;100.00;94630.03;5022996;28;20464;-73
2021/11/26 11:15:35;;;;;;;58.93;30.43;;;;;;;-0.17;100.00;94620.91;5030697;28;20475;-72
2021/11/26 11:18:01;;;;;;;60.17;29.70;;;;;;;-0.08;100.00;94618.31;5008682;28;21049;-72
2021/11/26 11:20:27;;;;;;;62.77;29.57;;;;;;;0.05;100.00;94614.69;5047202;28;20456;-73
2021/11/26 11:22:53;;;;;;;59.73;28.23;;;;;;;0.08;100.00;94609.25;5041372;28;20694;-73